Cheyenne — 9HAK5 — position and weather

sailwx.info

Track history (hours):
 
Tides and Currents Weather Stations Pressure Air Temp Water Temp Dewpoint Dewpoint Depression Visibility Wind Speed Wind Dir Waves Ship Positions

Cheyenne

Last reported at 2015-Aug-30 05:13 UTC. Time now 2015-Sep-02 04:25 UTC.
Position N 34°35' E 032°29'.

Length 138 m; draft 3.9 m.

Type: Cargo ship. MMSI: 249607000.

Date/timePositionNaut miles runAvg speedWind from/ knotsBaromVisibWave heightAir tempDewpointWater temp
2015-Aug-30 05:13N 34°35' E 032°29'4 6.3
2015-Aug-30 04:33N 34°33' E 032°34'6 6.3
2015-Aug-30 03:33N 34°29' E 032°40'6 6.1
2015-Aug-30 02:33N 34°27' E 032°47'6 5.9
2015-Aug-30 01:33N 34°25' E 032°54'6 6.3
2015-Aug-30 00:33N 34°25' E 033°01'6 6.2
2015-Aug-29 23:34N 34°26' E 033°09'6 6.1
2015-Aug-29 22:33N 34°26' E 033°16'6 6.3
2015-Aug-29 21:33N 34°26' E 033°24'6 6.2
2015-Aug-29 20:33N 34°27' E 033°31'6 6.1
2015-Aug-29 19:33N 34°27' E 033°39'6 6.0
2015-Aug-29 18:33N 34°27' E 033°46'6 5.9
2015-Aug-29 17:33N 34°27' E 033°53'7 7.2
2015-Aug-29 16:33N 34°28' E 034°02'8 7.8
2015-Aug-29 15:33N 34°28' E 034°11'  
2015-Aug-24 05:05N 34°19' E 033°03'5 7.9
2015-Aug-24 04:26N 34°22' E 032°58'7 7.8
2015-Aug-24 03:33N 34°25' E 032°50'7 7.5
2015-Aug-24 02:33N 34°29' E 032°42'  
Track history (hours):
 
Tides and Currents Weather Stations Pressure Air Temp Water Temp Dewpoint Dewpoint Depression Visibility Wind Speed Wind Dir Waves Ship Positions

Cheyenne

Last reported at 2015-Aug-30 05:13 UTC. Time now 2015-Sep-02 04:25 UTC.
Position N 34°35' E 032°29'.

Length 138 m; draft 3.9 m.

Type: Cargo ship. MMSI: 249607000.

Date/timePositionNaut miles runAvg speedWind from/ knotsBaromVisibWave heightAir tempDewpointWater temp
2015-Aug-30 05:13N 34°35' E 032°29'4 6.3
2015-Aug-30 04:33N 34°33' E 032°34'6 6.3
2015-Aug-30 03:33N 34°29' E 032°40'6 6.1
2015-Aug-30 02:33N 34°27' E 032°47'6 5.9
2015-Aug-30 01:33N 34°25' E 032°54'6 6.3
2015-Aug-30 00:33N 34°25' E 033°01'6 6.2
2015-Aug-29 23:34N 34°26' E 033°09'6 6.1
2015-Aug-29 22:33N 34°26' E 033°16'6 6.3
2015-Aug-29 21:33N 34°26' E 033°24'6 6.2
2015-Aug-29 20:33N 34°27' E 033°31'6 6.1
2015-Aug-29 19:33N 34°27' E 033°39'6 6.0
2015-Aug-29 18:33N 34°27' E 033°46'6 5.9
2015-Aug-29 17:33N 34°27' E 033°53'7 7.2
2015-Aug-29 16:33N 34°28' E 034°02'8 7.8
2015-Aug-29 15:33N 34°28' E 034°11'  
2015-Aug-24 05:05N 34°19' E 033°03'5 7.9
2015-Aug-24 04:26N 34°22' E 032°58'7 7.8
2015-Aug-24 03:33N 34°25' E 032°50'7 7.5
2015-Aug-24 02:33N 34°29' E 032°42'  

Dump ship's entire track history